createdAt,value
2018-10-07T00:01:31.470Z,8.63
2018-10-07T00:04:01.134Z,10.50
2018-10-07T00:06:30.808Z,9.33
2018-10-07T00:09:00.450Z,9.40
2018-10-07T00:11:30.171Z,10.82
2018-10-07T00:13:59.824Z,10.45
2018-10-07T00:16:29.522Z,13.78
2018-10-07T00:18:59.219Z,11.83
2018-10-07T00:21:28.902Z,10.50
2018-10-07T00:23:58.551Z,9.20
2018-10-07T00:26:28.227Z,10.68
2018-10-07T00:28:57.867Z,9.50
2018-10-07T00:31:27.534Z,10.38
2018-10-07T00:33:57.179Z,10.15
2018-10-07T00:36:26.843Z,8.00
2018-10-07T00:38:56.494Z,7.78
2018-10-07T00:41:26.167Z,7.15
2018-10-07T00:43:56.155Z,6.55
2018-10-07T00:46:25.827Z,6.90
2018-10-07T00:48:55.499Z,6.42
2018-10-07T00:51:25.191Z,8.33
2018-10-07T00:53:54.847Z,9.58
2018-10-07T00:56:24.555Z,10.05
2018-10-07T00:58:54.262Z,9.43
2018-10-07T01:01:23.947Z,9.68
2018-10-07T01:03:53.999Z,9.25
2018-10-07T01:06:23.719Z,8.73
2018-10-07T01:08:53.403Z,8.63
2018-10-07T01:11:23.105Z,9.85
2018-10-07T01:13:53.155Z,10.78
2018-10-07T01:16:22.867Z,8.80
2018-10-07T01:18:52.583Z,9.75
2018-10-07T01:21:22.444Z,8.08
2018-10-07T01:23:52.140Z,7.72
2018-10-07T01:26:21.833Z,8.05
2018-10-07T01:28:51.552Z,8.70
2018-10-07T01:31:21.227Z,8.60
2018-10-07T01:33:50.942Z,8.13
2018-10-07T01:36:20.841Z,7.62
2018-10-07T01:38:50.658Z,8.43
2018-10-07T01:41:20.335Z,8.68
2018-10-07T01:43:50.051Z,8.50
2018-10-07T01:46:19.759Z,8.80
2018-10-07T01:48:49.487Z,9.05
2018-10-07T01:51:19.162Z,8.85
2018-10-07T01:53:48.895Z,9.40
2018-10-07T01:56:18.579Z,9.60
2018-10-07T01:58:48.304Z,10.20
2018-10-07T02:01:18.017Z,10.13
2018-10-07T02:03:47.729Z,10.13
2018-10-07T02:06:17.427Z,9.08
2018-10-07T02:08:47.139Z,8.75
2018-10-07T02:11:16.818Z,8.50
2018-10-07T02:13:46.582Z,8.53
2018-10-07T02:16:16.415Z,9.03
2018-10-07T02:18:46.152Z,8.53
2018-10-07T02:21:15.834Z,9.03
2018-10-07T02:23:45.545Z,8.70
2018-10-07T02:26:15.227Z,9.48
2018-10-07T02:28:44.926Z,8.58
2018-10-07T02:31:14.603Z,9.23
2018-10-07T02:33:44.301Z,8.75
2018-10-07T02:36:13.999Z,8.75
2018-10-07T02:38:43.731Z,9.70
2018-10-07T02:41:13.415Z,9.98
2018-10-07T02:43:43.106Z,8.60
2018-10-07T02:46:12.795Z,8.38
2018-10-07T02:48:42.558Z,11.68
2018-10-07T02:51:12.602Z,10.23
2018-10-07T02:53:42.355Z,8.98
2018-10-07T02:56:12.078Z,8.38
2018-10-07T02:58:42.131Z,9.03
2018-10-07T03:01:11.820Z,9.33
2018-10-07T03:03:41.550Z,9.63
2018-10-07T03:06:11.604Z,10.20
2018-10-07T03:08:41.312Z,9.00
2018-10-07T03:11:10.990Z,8.90
2018-10-07T03:13:40.688Z,8.90
2018-10-07T03:16:10.387Z,7.45
2018-10-07T03:18:40.114Z,7.67
2018-10-07T03:21:09.778Z,8.90
2018-10-07T03:23:39.479Z,8.43
2018-10-07T03:26:09.171Z,8.40
2018-10-07T03:28:38.869Z,9.03
2018-10-07T03:31:08.599Z,8.55
2018-10-07T03:33:38.304Z,9.55
2018-10-07T03:36:07.991Z,8.75
2018-10-07T03:38:37.699Z,7.53
2018-10-07T03:41:07.810Z,8.38
2018-10-07T03:43:37.495Z,7.92
2018-10-07T03:46:07.299Z,8.10
2018-10-07T03:48:36.989Z,8.95
2018-10-07T03:51:06.684Z,7.95
2018-10-07T03:53:36.375Z,7.83
2018-10-07T03:56:06.084Z,7.40
2018-10-07T03:58:35.754Z,8.33
2018-10-07T04:01:05.848Z,9.35
2018-10-07T04:03:35.903Z,8.78
2018-10-07T04:06:05.630Z,9.18
2018-10-07T04:08:35.344Z,8.53
2018-10-07T04:11:05.051Z,8.00
2018-10-07T04:13:34.787Z,9.48
2018-10-07T04:16:04.547Z,8.23
2018-10-07T04:18:34.271Z,9.30
2018-10-07T04:21:03.999Z,9.15
2018-10-07T04:23:33.707Z,10.10
2018-10-07T04:26:03.426Z,9.28
2018-10-07T04:28:33.150Z,8.88
2018-10-07T04:31:02.864Z,8.15
2018-10-07T04:33:32.558Z,8.35
2018-10-07T04:36:02.267Z,8.70
2018-10-07T04:38:32.007Z,9.28
2018-10-07T04:41:02.777Z,9.78
2018-10-07T04:43:33.019Z,10.00
2018-10-07T04:46:02.776Z,9.10
2018-10-07T04:48:32.487Z,9.43
2018-10-07T04:51:02.183Z,9.35
2018-10-07T04:53:31.875Z,8.60
2018-10-07T04:56:01.623Z,9.13
2018-10-07T04:58:31.324Z,9.55
2018-10-07T05:01:01.103Z,9.65
2018-10-07T05:03:30.798Z,8.88
2018-10-07T05:06:00.666Z,7.67
2018-10-07T05:08:30.471Z,8.23
2018-10-07T05:11:02.694Z,8.73
2018-10-07T05:14:05.183Z,8.18
2018-10-07T05:16:41.204Z,9.95
2018-10-07T05:19:10.927Z,8.13
2018-10-07T05:21:40.663Z,8.55
2018-10-07T05:24:10.565Z,8.35
2018-10-07T05:26:40.552Z,8.18
2018-10-07T05:29:10.288Z,8.63
2018-10-07T05:31:40.367Z,7.40
2018-10-07T05:34:10.070Z,9.38
2018-10-07T05:36:39.818Z,8.50
2018-10-07T05:39:11.090Z,8.03
2018-10-07T05:41:41.147Z,7.92
2018-10-07T05:44:10.857Z,8.90
2018-10-07T05:46:40.791Z,9.10
2018-10-07T05:49:10.519Z,8.75
2018-10-07T05:51:40.666Z,9.20
2018-10-07T05:54:10.352Z,9.98
2018-10-07T05:56:40.195Z,9.10
2018-10-07T05:59:09.943Z,9.35
2018-10-07T06:01:43.184Z,8.28
2018-10-07T06:04:23.371Z,9.93
2018-10-07T06:06:54.838Z,9.13
2018-10-07T06:09:27.907Z,9.53
2018-10-07T06:11:57.855Z,9.55
2018-10-07T06:14:38.872Z,8.45
2018-10-07T06:17:08.758Z,9.78
2018-10-07T06:19:38.851Z,9.43
2018-10-07T06:22:08.943Z,10.68
2018-10-07T06:24:38.707Z,10.00
2018-10-07T06:27:08.812Z,11.00
2018-10-07T06:29:38.542Z,10.25
2018-10-07T06:32:08.839Z,9.48
2018-10-07T06:34:38.902Z,11.50
2018-10-07T06:37:08.979Z,9.85
2018-10-07T06:39:39.067Z,11.10
2018-10-07T06:42:08.876Z,9.05
2018-10-07T06:44:38.613Z,10.72
2018-10-07T06:47:08.651Z,11.15
2018-10-07T06:49:38.386Z,12.10
2018-10-07T06:52:08.475Z,12.40
2018-10-07T06:54:38.211Z,11.50
2018-10-07T06:57:07.955Z,10.32
2018-10-07T06:59:37.924Z,10.00
2018-10-07T07:02:08.567Z,10.43
2018-10-07T07:04:38.274Z,10.48
2018-10-07T07:07:08.220Z,10.38
2018-10-07T07:09:37.928Z,10.18
2018-10-07T07:12:07.674Z,11.18
2018-10-07T07:14:37.378Z,9.18
2018-10-07T07:17:07.492Z,11.95
2018-10-07T07:19:37.319Z,12.85
2018-10-07T07:22:07.704Z,11.88
2018-10-07T07:24:37.694Z,10.85
2018-10-07T07:27:07.742Z,11.22
2018-10-07T07:29:37.507Z,11.93
2018-10-07T07:32:07.256Z,10.80
2018-10-07T07:34:37.024Z,12.20
2018-10-07T07:37:06.779Z,11.22
2018-10-07T07:39:36.499Z,11.22
2018-10-07T07:42:06.290Z,12.40
2018-10-07T07:44:36.021Z,12.10
2018-10-07T07:47:05.844Z,10.75
2018-10-07T07:49:35.619Z,11.45
2018-10-07T07:52:05.346Z,11.20
2018-10-07T07:54:35.206Z,11.35
2018-10-07T07:57:05.136Z,8.75
2018-10-07T07:59:34.885Z,11.65
2018-10-07T08:02:04.624Z,11.05
2018-10-07T08:04:34.507Z,10.90
2018-10-07T08:07:04.609Z,10.40
2018-10-07T08:09:34.665Z,12.35
2018-10-07T08:12:04.367Z,10.05
2018-10-07T08:14:34.104Z,9.73
2018-10-07T08:17:03.838Z,13.90
2018-10-07T08:19:33.591Z,11.08
2018-10-07T08:22:03.296Z,10.28
2018-10-07T08:24:33.006Z,10.55
2018-10-07T08:27:02.692Z,10.88
2018-10-07T08:29:32.676Z,10.10
2018-10-07T08:32:02.848Z,10.45
2018-10-07T08:34:32.639Z,9.93
2018-10-07T08:37:02.316Z,9.68
2018-10-07T08:39:32.059Z,8.95
2018-10-07T08:42:01.739Z,8.10
2018-10-07T08:44:31.482Z,7.47
2018-10-07T08:47:01.196Z,7.22
2018-10-07T08:49:30.984Z,6.55
2018-10-07T08:52:01.115Z,8.93
2018-10-07T08:54:30.818Z,8.80
2018-10-07T08:57:03.387Z,7.20
2018-10-07T08:59:33.094Z,6.95
2018-10-07T09:02:02.828Z,6.03
2018-10-07T09:04:34.390Z,6.80
2018-10-07T09:07:04.212Z,6.72
2018-10-07T09:09:34.165Z,7.00
2018-10-07T09:12:03.874Z,6.60
2018-10-07T09:14:33.831Z,6.90
2018-10-07T09:17:03.970Z,8.38
2018-10-07T09:19:33.717Z,7.08
2018-10-07T09:22:03.395Z,9.70
2018-10-07T09:24:33.083Z,7.28
2018-10-07T09:27:02.835Z,6.75
2018-10-07T09:29:33.112Z,7.95
2018-10-07T09:32:02.913Z,6.62
2018-10-07T09:34:32.623Z,6.83
2018-10-07T09:37:02.334Z,6.28
2018-10-07T09:39:32.073Z,6.80
2018-10-07T09:42:01.960Z,7.22
2018-10-07T09:44:31.667Z,9.50
2018-10-07T09:47:01.421Z,6.28
2018-10-07T09:49:31.416Z,6.47
2018-10-07T09:52:01.107Z,7.08
2018-10-07T09:54:31.183Z,6.50
2018-10-07T09:57:00.871Z,6.42
2018-10-07T09:59:30.586Z,5.65
2018-10-07T10:02:00.391Z,6.90
2018-10-07T10:04:30.134Z,6.97
2018-10-07T10:06:59.985Z,6.62
2018-10-07T10:09:29.886Z,5.50
2018-10-07T10:11:59.865Z,5.22
2018-10-07T10:14:29.583Z,4.55
2018-10-07T10:17:09.462Z,4.85
2018-10-07T10:19:42.393Z,4.90
2018-10-07T10:23:34.396Z,5.00
2018-10-07T10:26:25.703Z,5.45
2018-10-07T10:29:05.043Z,5.10
2018-10-07T10:31:56.568Z,5.67
2018-10-07T10:34:31.081Z,4.50
2018-10-07T10:37:02.668Z,5.12
2018-10-07T10:39:48.017Z,4.97
2018-10-07T10:42:21.016Z,7.78
2018-10-07T10:44:53.867Z,4.87
2018-10-07T10:47:33.927Z,7.53
2018-10-07T10:50:09.594Z,4.92
2018-10-07T10:52:44.399Z,4.83
2018-10-07T10:55:53.871Z,5.08
2018-10-07T10:58:50.200Z,5.72
2018-10-07T11:01:31.382Z,4.95
2018-10-07T11:04:12.422Z,4.95
2018-10-07T11:07:22.022Z,5.60
2018-10-07T11:10:21.503Z,5.05
2018-10-07T11:14:02.380Z,5.40
2018-10-07T11:16:41.539Z,6.08
2018-10-07T11:19:19.636Z,6.87
2018-10-07T11:23:12.727Z,5.53
2018-10-07T11:26:02.884Z,6.20
2018-10-07T11:28:41.488Z,5.85
2018-10-07T11:31:21.266Z,5.55
2018-10-07T11:34:03.555Z,5.60
2018-10-07T11:39:49.201Z,5.42
2018-10-07T11:42:25.587Z,5.65
2018-10-07T11:45:10.066Z,5.30
2018-10-07T11:47:57.245Z,5.97
2018-10-07T11:52:45.864Z,5.62
2018-10-07T11:55:16.020Z,7.97
2018-10-07T11:57:46.044Z,6.17
2018-10-07T12:00:15.863Z,7.10
2018-10-07T12:02:45.673Z,6.05
2018-10-07T12:05:15.790Z,6.03
2018-10-07T12:07:45.797Z,6.33
2018-10-07T12:10:15.847Z,5.35
2018-10-07T12:12:46.011Z,6.12
2018-10-07T12:15:15.710Z,5.35
2018-10-07T12:17:45.417Z,5.60
2018-10-07T12:20:15.145Z,5.47
2018-10-07T12:22:44.855Z,5.62
2018-10-07T12:25:14.582Z,5.47
2018-10-07T12:27:44.608Z,5.92
2018-10-07T12:30:14.343Z,5.05
2018-10-07T12:32:44.007Z,5.42
2018-10-07T12:35:14.055Z,5.70
2018-10-07T12:37:44.075Z,6.17
2018-10-07T12:40:15.819Z,6.85
2018-10-07T12:42:45.538Z,5.58
2018-10-07T12:45:20.999Z,5.95
2018-10-07T12:47:50.727Z,5.10
2018-10-07T12:50:20.446Z,6.72
2018-10-07T12:52:51.002Z,6.08
2018-10-07T12:55:21.134Z,5.70
2018-10-07T12:57:51.135Z,5.58
2018-10-07T13:00:21.179Z,6.60
2018-10-07T13:02:51.163Z,5.28
2018-10-07T13:05:20.900Z,7.17
2018-10-07T13:07:50.627Z,5.60
2018-10-07T13:10:20.349Z,6.35
2018-10-07T13:12:50.071Z,7.47
2018-10-07T13:15:19.798Z,5.62
2018-10-07T13:17:49.572Z,7.92
2018-10-07T13:20:19.294Z,5.65
2018-10-07T13:22:49.004Z,5.10
2018-10-07T13:25:18.710Z,4.90
2018-10-07T13:27:48.450Z,5.70
2018-10-07T13:30:18.169Z,4.72
2018-10-07T13:32:48.195Z,5.25
2018-10-07T13:35:17.914Z,4.75
2018-10-07T13:37:47.635Z,5.28
2018-10-07T13:40:17.347Z,5.00
2018-10-07T13:42:47.075Z,5.20
2018-10-07T13:45:17.091Z,4.83
2018-10-07T13:47:46.844Z,5.08
2018-10-07T13:50:16.574Z,4.72
2018-10-07T13:52:46.310Z,4.45
2018-10-07T13:55:16.039Z,4.28
2018-10-07T13:57:46.175Z,4.50
2018-10-07T14:00:15.891Z,4.85
2018-10-07T14:02:45.636Z,4.67
2018-10-07T14:05:15.391Z,4.62
2018-10-07T14:07:45.210Z,7.95
2018-10-07T14:10:14.925Z,4.47
2018-10-07T14:12:44.634Z,6.12
2018-10-07T14:15:14.334Z,5.42
2018-10-07T14:17:44.079Z,4.35
2018-10-07T14:20:14.124Z,4.20
2018-10-07T14:22:43.859Z,4.20
2018-10-07T14:25:13.874Z,4.08
2018-10-07T14:27:43.899Z,4.58
2018-10-07T14:30:13.627Z,5.05
2018-10-07T14:32:43.377Z,4.58
2018-10-07T14:35:13.102Z,4.53
2018-10-07T14:37:43.113Z,4.53
2018-10-07T14:40:12.823Z,4.15
2018-10-07T14:42:42.862Z,6.80
2018-10-07T14:45:18.166Z,4.70
2018-10-07T14:47:48.227Z,4.55
2018-10-07T14:50:17.978Z,4.33
2018-10-07T14:52:47.698Z,3.72
2018-10-07T14:55:17.463Z,4.08
2018-10-07T14:57:47.663Z,4.53
2018-10-07T15:00:17.401Z,4.37
2018-10-07T15:02:47.131Z,4.80
2018-10-07T15:05:16.840Z,5.45
2018-10-07T15:07:46.866Z,4.22
2018-10-07T15:10:16.875Z,4.58
2018-10-07T15:12:46.606Z,4.65
2018-10-07T15:15:16.967Z,6.05
2018-10-07T15:17:47.016Z,5.12
2018-10-07T15:20:16.707Z,5.62
2018-10-07T15:22:46.714Z,5.42
2018-10-07T15:25:16.523Z,7.12
2018-10-07T15:27:46.555Z,7.37
2018-10-07T15:30:16.239Z,6.92
2018-10-07T15:32:45.962Z,5.60
2018-10-07T15:35:15.951Z,5.85
2018-10-07T15:37:45.667Z,5.60
2018-10-07T15:40:15.538Z,5.03
2018-10-07T15:42:45.377Z,4.15
2018-10-07T15:45:16.079Z,4.58
2018-10-07T15:47:46.674Z,5.25
2018-10-07T15:50:16.579Z,4.58
2018-10-07T15:52:46.500Z,4.53
2018-10-07T15:55:16.607Z,4.87
2018-10-07T15:57:46.356Z,4.12
2018-10-07T16:00:16.544Z,4.50
2018-10-07T16:02:46.266Z,4.22
2018-10-07T16:05:16.012Z,5.67
2018-10-07T16:07:46.498Z,4.12
2018-10-07T16:10:16.283Z,4.25
2018-10-07T16:12:46.015Z,4.97
2018-10-07T16:15:15.730Z,4.50
2018-10-07T16:17:45.807Z,3.85
2018-10-07T16:20:15.847Z,4.10
2018-10-07T16:22:45.834Z,3.60
2018-10-07T16:25:15.855Z,4.20
2018-10-07T16:27:45.875Z,4.05
2018-10-07T16:30:15.595Z,4.90
2018-10-07T16:32:45.290Z,5.20
2018-10-07T16:35:15.072Z,4.95
2018-10-07T16:37:44.819Z,5.80
2018-10-07T16:40:14.949Z,4.95
2018-10-07T16:42:44.689Z,5.28
2018-10-07T16:45:14.749Z,4.70
2018-10-07T16:47:45.023Z,7.03
2018-10-07T16:50:14.786Z,6.85
2018-10-07T16:52:44.754Z,6.72
2018-10-07T16:55:14.719Z,5.50
2018-10-07T16:57:45.112Z,5.17
2018-10-07T17:00:15.299Z,5.95
2018-10-07T17:02:45.042Z,5.97
2018-10-07T17:05:14.832Z,5.92
2018-10-07T17:07:44.830Z,5.75
2018-10-07T17:10:14.890Z,5.55
2018-10-07T17:12:44.690Z,5.95
2018-10-07T17:15:14.927Z,6.28
2018-10-07T17:17:44.695Z,4.97
2018-10-07T17:20:15.498Z,5.33
2018-10-07T17:22:45.714Z,6.10
2018-10-07T17:25:15.571Z,5.87
2018-10-07T17:27:45.315Z,6.85
2018-10-07T17:30:15.995Z,6.42
2018-10-07T17:32:46.062Z,5.25
2018-10-07T17:35:16.096Z,6.45
2018-10-07T17:37:46.020Z,6.17
2018-10-07T17:40:15.763Z,5.97
2018-10-07T17:42:45.658Z,5.53
2018-10-07T17:45:15.862Z,6.60
2018-10-07T17:47:45.847Z,5.87
2018-10-07T17:50:15.647Z,7.12
2018-10-07T17:52:45.626Z,6.35
2018-10-07T17:55:15.734Z,6.10
2018-10-07T17:57:45.500Z,6.92
2018-10-07T18:00:15.503Z,6.12
2018-10-07T18:02:45.355Z,6.60
2018-10-07T18:05:15.259Z,7.17
2018-10-07T18:07:45.079Z,6.90
2018-10-07T18:10:15.091Z,6.08
2018-10-07T18:12:44.791Z,7.60
2018-10-07T18:15:14.524Z,6.67
2018-10-07T18:17:44.237Z,8.40
2018-10-07T18:20:14.575Z,9.53
2018-10-07T18:22:44.343Z,8.00
2018-10-07T18:25:14.490Z,9.58
2018-10-07T18:27:44.733Z,10.88
2018-10-07T18:30:14.455Z,9.30
2018-10-07T18:32:44.262Z,9.40
2018-10-07T18:35:14.040Z,9.08
2018-10-07T18:37:43.775Z,9.53
2018-10-07T18:40:13.556Z,8.60
2018-10-07T18:42:43.455Z,9.18
2018-10-07T18:45:19.258Z,8.08
2018-10-07T18:47:49.006Z,8.53
2018-10-07T18:50:19.828Z,7.53
2018-10-07T18:52:49.555Z,7.87
2018-10-07T18:55:19.369Z,7.95
2018-10-07T18:57:49.135Z,8.08
2018-10-07T19:00:18.907Z,8.65
2018-10-07T19:02:48.811Z,8.83
2018-10-07T19:05:18.795Z,10.23
2018-10-07T19:07:48.558Z,9.35
2018-10-07T19:10:18.890Z,9.45
2018-10-07T19:12:49.118Z,10.48
2018-10-07T19:15:19.171Z,10.00
2018-10-07T19:17:48.985Z,8.40
2018-10-07T19:20:18.794Z,6.75
2018-10-07T19:22:48.596Z,8.28
2018-10-07T19:25:18.481Z,8.15
2018-10-07T19:27:48.255Z,8.13
2018-10-07T19:30:18.151Z,7.80
2018-10-07T19:32:47.909Z,7.85
2018-10-07T19:35:18.788Z,7.53
2018-10-07T19:37:48.749Z,8.00
2018-10-07T19:40:18.511Z,8.15
2018-10-07T19:42:48.627Z,10.00
2018-10-07T19:45:25.576Z,10.30
2018-10-07T19:47:55.867Z,10.85
2018-10-07T19:50:26.001Z,11.05
2018-10-07T19:52:56.037Z,10.50
2018-10-07T19:55:27.463Z,10.90
2018-10-07T19:57:57.972Z,11.43
2018-10-07T20:00:28.733Z,11.93
2018-10-07T20:02:59.238Z,12.13
2018-10-07T20:05:29.032Z,10.98
2018-10-07T20:07:58.766Z,11.03
2018-10-07T20:10:28.583Z,11.12
2018-10-07T20:12:58.639Z,11.28
2018-10-07T20:15:28.582Z,10.28
2018-10-07T20:17:58.606Z,10.35
2018-10-07T20:20:28.652Z,9.75
2018-10-07T20:22:58.400Z,9.00
2018-10-07T20:25:28.099Z,10.43
2018-10-07T20:27:57.838Z,8.78
2018-10-07T20:30:27.491Z,8.58
2018-10-07T20:32:57.163Z,9.18
2018-10-07T20:35:26.850Z,10.48
2018-10-07T20:37:56.918Z,9.38
2018-10-07T20:40:27.512Z,9.53
2018-10-07T20:42:57.527Z,12.00
2018-10-07T20:45:27.450Z,12.63
2018-10-07T20:47:57.327Z,13.35
2018-10-07T20:50:27.051Z,14.18
2018-10-07T20:52:57.347Z,15.10
2018-10-07T20:55:27.560Z,13.72
2018-10-07T20:57:59.715Z,16.40
2018-10-07T21:00:30.563Z,14.50
2018-10-07T21:03:00.323Z,14.98
2018-10-07T21:05:30.237Z,13.55
2018-10-07T21:08:00.234Z,15.23
2018-10-07T21:10:29.940Z,15.18
2018-10-07T21:12:59.688Z,13.75
2018-10-07T21:15:29.387Z,14.38
2018-10-07T21:17:59.094Z,17.25
2018-10-07T21:20:28.802Z,19.23
2018-10-07T21:22:58.524Z,22.85
2018-10-07T21:25:28.467Z,26.23
2018-10-07T21:27:58.153Z,23.02
2018-10-07T21:30:27.880Z,21.40
2018-10-07T21:32:57.579Z,25.10
2018-10-07T21:35:27.278Z,20.70
2018-10-07T21:37:56.977Z,18.30
2018-10-07T21:40:26.652Z,21.93
2018-10-07T21:42:56.706Z,22.42
2018-10-07T21:45:26.476Z,18.77
2018-10-07T21:47:56.189Z,25.23
2018-10-07T21:50:25.874Z,27.13
2018-10-07T21:52:55.535Z,34.00
2018-10-07T21:55:25.231Z,28.65
2018-10-07T21:57:54.894Z,31.93
2018-10-07T22:00:24.618Z,36.08
2018-10-07T22:02:54.307Z,37.45
2018-10-07T22:05:23.998Z,34.53
2018-10-07T22:07:53.759Z,38.05
2018-10-07T22:10:23.444Z,37.88
2018-10-07T22:12:53.126Z,40.25
2018-10-07T22:15:23.119Z,40.48
2018-10-07T22:17:52.827Z,39.73
2018-10-07T22:20:22.606Z,40.83
2018-10-07T22:22:52.359Z,40.70
2018-10-07T22:25:22.083Z,39.63
2018-10-07T22:27:51.803Z,40.12
2018-10-07T22:30:21.517Z,37.48
2018-10-07T22:32:51.282Z,38.28
2018-10-07T22:35:20.986Z,39.13
2018-10-07T22:37:50.707Z,39.92
2018-10-07T22:40:20.431Z,38.73
2018-10-07T22:42:50.197Z,40.92
2018-10-07T22:45:19.935Z,36.55
2018-10-07T22:47:49.662Z,39.27
2018-10-07T22:50:19.415Z,37.95
2018-10-07T22:52:49.094Z,34.20
2018-10-07T22:55:18.798Z,31.95
2018-10-07T22:57:48.899Z,32.50
2018-10-07T23:00:18.697Z,37.60
2018-10-07T23:02:48.557Z,38.40
2018-10-07T23:05:18.290Z,39.83
2018-10-07T23:07:48.303Z,44.25
2018-10-07T23:10:18.038Z,40.98
2018-10-07T23:12:47.750Z,46.73
2018-10-07T23:15:17.475Z,44.33
2018-10-07T23:17:47.238Z,47.40
2018-10-07T23:20:17.299Z,45.48
2018-10-07T23:22:46.988Z,46.55
2018-10-07T23:25:16.695Z,44.13
2018-10-07T23:27:46.419Z,48.95
2018-10-07T23:30:16.112Z,45.98
2018-10-07T23:32:45.861Z,46.13
2018-10-07T23:35:15.580Z,48.02
2018-10-07T23:37:45.303Z,47.35
2018-10-07T23:40:15.035Z,50.60
2018-10-07T23:42:44.739Z,43.78
2018-10-07T23:45:14.470Z,48.35
2018-10-07T23:47:44.180Z,46.33
2018-10-07T23:50:13.882Z,49.23
2018-10-07T23:52:43.566Z,52.60
2018-10-07T23:55:13.283Z,47.78
2018-10-07T23:57:43.040Z,47.00
